sensor_id;sensor_type;location;lat;lon;timestamp;pressure;altitude;pressure_sealevel;temperature;humidity
46682;BME280;34101;53.430;-2.224;2023-02-11T00:01:58;42257.41;;;-148.94;100.00
46682;BME280;34101;53.430;-2.224;2023-02-11T00:04:25;43595.68;;;-148.94;100.00
46682;BME280;34101;53.430;-2.224;2023-02-11T00:06:53;43074.24;;;-148.94;100.00
46682;BME280;34101;53.430;-2.224;2023-02-11T00:09:21;42920.42;;;-148.94;100.00
46682;BME280;34101;53.430;-2.224;2023-02-11T00:11:48;42731.47;;;-148.94;100.00
46682;BME280;34101;53.430;-2.224;2023-02-11T00:14:15;42238.37;;;-148.94;100.00
46682;BME280;34101;53.430;-2.224;2023-02-11T00:16:43;42250.13;;;-148.94;100.00
46682;BME280;34101;53.430;-2.224;2023-02-11T00:19:11;42986.60;;;-148.94;100.00
46682;BME280;34101;53.430;-2.224;2023-02-11T00:21:39;43222.45;;;-148.94;100.00
46682;BME280;34101;53.430;-2.224;2023-02-11T00:24:07;43080.50;;;-148.94;100.00
46682;BME280;34101;53.430;-2.224;2023-02-11T00:26:35;42533.84;;;-148.94;100.00
46682;BME280;34101;53.430;-2.224;2023-02-11T00:29:04;43448.09;;;-148.94;100.00
46682;BME280;34101;53.430;-2.224;2023-02-11T00:31:32;43135.31;;;-148.94;100.00
46682;BME280;34101;53.430;-2.224;2023-02-11T00:34:00;42987.87;;;-148.94;100.00
46682;BME280;34101;53.430;-2.224;2023-02-11T00:36:28;42908.15;;;-148.94;100.00
46682;BME280;34101;53.430;-2.224;2023-02-11T00:38:57;42777.84;;;-148.94;100.00
46682;BME280;34101;53.430;-2.224;2023-02-11T00:41:25;43065.17;;;-148.94;100.00
46682;BME280;34101;53.430;-2.224;2023-02-11T00:43:53;42702.47;;;-148.94;100.00
46682;BME280;34101;53.430;-2.224;2023-02-11T00:46:21;42828.30;;;-148.94;100.00
46682;BME280;34101;53.430;-2.224;2023-02-11T00:48:49;42862.67;;;-148.94;100.00
46682;BME280;34101;53.430;-2.224;2023-02-11T00:51:17;42788.70;;;-148.94;100.00
46682;BME280;34101;53.430;-2.224;2023-02-11T00:53:44;43136.97;;;-148.94;100.00
46682;BME280;34101;53.430;-2.224;2023-02-11T00:56:12;42905.34;;;-148.94;100.00
46682;BME280;34101;53.430;-2.224;2023-02-11T00:58:39;43412.96;;;-148.94;100.00
46682;BME280;34101;53.430;-2.224;2023-02-11T01:01:07;43497.03;;;-148.94;100.00
46682;BME280;34101;53.430;-2.224;2023-02-11T01:03:34;43404.39;;;-148.94;100.00
46682;BME280;34101;53.430;-2.224;2023-02-11T01:06:02;42979.95;;;-148.94;100.00
46682;BME280;34101;53.430;-2.224;2023-02-11T01:08:29;43093.66;;;-148.94;100.00
46682;BME280;34101;53.430;-2.224;2023-02-11T01:10:58;43466.62;;;-148.94;100.00
46682;BME280;34101;53.430;-2.224;2023-02-11T01:13:26;43647.05;;;-148.94;100.00
46682;BME280;34101;53.430;-2.224;2023-02-11T01:15:56;43878.34;;;-148.94;100.00
46682;BME280;34101;53.430;-2.224;2023-02-11T01:18:23;43953.09;;;-148.94;100.00
46682;BME280;34101;53.430;-2.224;2023-02-11T01:20:51;44123.96;;;-148.94;100.00
46682;BME280;34101;53.430;-2.224;2023-02-11T01:23:19;44485.89;;;-148.94;100.00
46682;BME280;34101;53.430;-2.224;2023-02-11T01:25:47;44572.42;;;-148.94;100.00
46682;BME280;34101;53.430;-2.224;2023-02-11T01:28:16;44548.78;;;-148.94;100.00
46682;BME280;34101;53.430;-2.224;2023-02-11T01:30:44;44304.54;;;-148.94;95.52
46682;BME280;34101;53.430;-2.224;2023-02-11T01:33:13;44312.33;;;-148.94;90.77
46682;BME280;34101;53.430;-2.224;2023-02-11T01:35:41;44108.62;;;-148.94;90.18
46682;BME280;34101;53.430;-2.224;2023-02-11T01:38:17;44582.26;;;-148.94;87.73
46682;BME280;34101;53.430;-2.224;2023-02-11T01:40:47;44364.09;;;-148.94;85.66
46682;BME280;34101;53.430;-2.224;2023-02-11T01:43:15;44658.82;;;-148.94;83.50
46682;BME280;34101;53.430;-2.224;2023-02-11T01:45:56;44246.52;;;-148.94;81.31
46682;BME280;34101;53.430;-2.224;2023-02-11T01:48:28;43979.80;;;-148.94;79.78
46682;BME280;34101;53.430;-2.224;2023-02-11T01:51:02;43944.79;;;-148.94;78.69
46682;BME280;34101;53.430;-2.224;2023-02-11T01:53:31;43782.88;;;-148.94;77.10
46682;BME280;34101;53.430;-2.224;2023-02-11T01:56:00;43533.58;;;-148.94;76.28
46682;BME280;34101;53.430;-2.224;2023-02-11T01:58:32;43270.62;;;-148.94;74.95
46682;BME280;34101;53.430;-2.224;2023-02-11T02:01:03;43337.70;;;-148.94;74.37
46682;BME280;34101;53.430;-2.224;2023-02-11T02:03:36;43424.46;;;-148.94;74.69
46682;BME280;34101;53.430;-2.224;2023-02-11T02:06:09;43769.72;;;-148.94;73.95
46682;BME280;34101;53.430;-2.224;2023-02-11T02:08:43;43854.82;;;-148.94;74.36
46682;BME280;34101;53.430;-2.224;2023-02-11T02:11:13;43459.72;;;-148.94;73.54
46682;BME280;34101;53.430;-2.224;2023-02-11T02:13:41;43265.12;;;-148.94;73.90
46682;BME280;34101;53.430;-2.224;2023-02-11T02:16:12;43294.64;;;-148.94;73.68
46682;BME280;34101;53.430;-2.224;2023-02-11T02:18:44;43384.46;;;-148.94;74.15
46682;BME280;34101;53.430;-2.224;2023-02-11T02:22:42;43394.43;;;-148.94;74.13
46682;BME280;34101;53.430;-2.224;2023-02-11T02:26:07;43786.97;;;-148.94;76.23
46682;BME280;34101;53.430;-2.224;2023-02-11T02:29:13;43835.91;;;-148.94;76.56
46682;BME280;34101;53.430;-2.224;2023-02-11T02:34:35;44139.16;;;-148.94;78.20
46682;BME280;34101;53.430;-2.224;2023-02-11T02:37:15;44023.64;;;-148.94;78.03
46682;BME280;34101;53.430;-2.224;2023-02-11T02:39:45;43929.96;;;-148.94;78.50
46682;BME280;34101;53.430;-2.224;2023-02-11T02:42:21;44155.91;;;-148.94;79.45
46682;BME280;34101;53.430;-2.224;2023-02-11T02:44:50;44352.85;;;-148.94;80.03
46682;BME280;34101;53.430;-2.224;2023-02-11T02:47:19;44312.59;;;-148.94;81.17
46682;BME280;34101;53.430;-2.224;2023-02-11T02:49:48;44502.77;;;-148.94;82.10
46682;BME280;34101;53.430;-2.224;2023-02-11T02:52:22;44168.81;;;-148.94;81.81
46682;BME280;34101;53.430;-2.224;2023-02-11T02:55:10;44204.47;;;-148.94;81.40
46682;BME280;34101;53.430;-2.224;2023-02-11T02:57:54;44822.56;;;-148.94;84.56
46682;BME280;34101;53.430;-2.224;2023-02-11T03:00:31;44477.71;;;-148.94;83.67
46682;BME280;34101;53.430;-2.224;2023-02-11T03:03:15;44589.17;;;-148.94;85.32
46682;BME280;34101;53.430;-2.224;2023-02-11T03:05:50;44742.80;;;-148.94;85.41
46682;BME280;34101;53.430;-2.224;2023-02-11T03:08:26;45169.48;;;-148.94;86.67
46682;BME280;34101;53.430;-2.224;2023-02-11T03:10:56;45563.47;;;-148.94;87.99
46682;BME280;34101;53.430;-2.224;2023-02-11T03:13:28;45115.28;;;-148.94;87.33
46682;BME280;34101;53.430;-2.224;2023-02-11T03:16:03;45673.29;;;-148.94;87.51
46682;BME280;34101;53.430;-2.224;2023-02-11T03:18:35;45523.07;;;-148.94;86.06
46682;BME280;34101;53.430;-2.224;2023-02-11T03:21:07;45738.88;;;-148.94;87.16
46682;BME280;34101;53.430;-2.224;2023-02-11T03:23:40;45889.74;;;-148.94;86.58
46682;BME280;34101;53.430;-2.224;2023-02-11T03:26:12;45961.21;;;-148.94;87.05
46682;BME280;34101;53.430;-2.224;2023-02-11T03:28:48;45823.90;;;-148.94;87.15
46682;BME280;34101;53.430;-2.224;2023-02-11T03:31:23;46319.10;;;-148.94;87.90
46682;BME280;34101;53.430;-2.224;2023-02-11T03:33:59;45887.44;;;-148.94;87.18
46682;BME280;34101;53.430;-2.224;2023-02-11T03:36:33;45714.33;;;-148.94;85.34
46682;BME280;34101;53.430;-2.224;2023-02-11T03:39:03;45699.50;;;-148.94;84.79
46682;BME280;34101;53.430;-2.224;2023-02-11T03:41:33;46115.03;;;-148.94;85.75
46682;BME280;34101;53.430;-2.224;2023-02-11T03:44:03;46292.25;;;-148.94;85.90
46682;BME280;34101;53.430;-2.224;2023-02-11T03:46:36;46112.73;;;-148.94;85.31
46682;BME280;34101;53.430;-2.224;2023-02-11T03:49:08;46184.46;;;-148.94;85.75
46682;BME280;34101;53.430;-2.224;2023-02-11T03:51:37;45859.31;;;-148.94;84.62
46682;BME280;34101;53.430;-2.224;2023-02-11T03:54:10;45838.47;;;-148.94;84.07
46682;BME280;34101;53.430;-2.224;2023-02-11T03:56:46;45688.25;;;-148.94;83.22
46682;BME280;34101;53.430;-2.224;2023-02-11T03:59:15;45407.63;;;-148.94;81.75
46682;BME280;34101;53.430;-2.224;2023-02-11T04:01:43;45551.84;;;-148.94;81.76
46682;BME280;34101;53.430;-2.224;2023-02-11T04:04:11;45771.74;;;-148.94;81.19
46682;BME280;34101;53.430;-2.224;2023-02-11T04:06:39;45271.10;;;-148.94;79.84
46682;BME280;34101;53.430;-2.224;2023-02-11T04:09:07;44880.33;;;-148.94;79.02
46682;BME280;34101;53.430;-2.224;2023-02-11T04:11:35;45050.72;;;-148.94;78.72
46682;BME280;34101;53.430;-2.224;2023-02-11T04:14:03;45172.67;;;-148.94;78.55
46682;BME280;34101;53.430;-2.224;2023-02-11T04:16:30;44889.54;;;-148.94;77.87
46682;BME280;34101;53.430;-2.224;2023-02-11T04:18:58;44890.56;;;-148.94;77.92
46682;BME280;34101;53.430;-2.224;2023-02-11T04:21:25;44545.33;;;-148.94;77.32
46682;BME280;34101;53.430;-2.224;2023-02-11T04:23:52;44342.75;;;-148.94;76.95
46682;BME280;34101;53.430;-2.224;2023-02-11T04:26:20;44494.84;;;-148.94;76.32
46682;BME280;34101;53.430;-2.224;2023-02-11T04:28:47;44228.24;;;-148.94;76.01
46682;BME280;34101;53.430;-2.224;2023-02-11T04:31:15;43990.03;;;-148.94;75.08
46682;BME280;34101;53.430;-2.224;2023-02-11T04:33:42;44072.33;;;-148.94;73.99
46682;BME280;34101;53.430;-2.224;2023-02-11T04:36:10;43915.52;;;-148.94;75.26
46682;BME280;34101;53.430;-2.224;2023-02-11T04:38:38;43993.09;;;-148.94;74.09
46682;BME280;34101;53.430;-2.224;2023-02-11T04:41:05;44145.43;;;-148.94;74.11
46682;BME280;34101;53.430;-2.224;2023-02-11T04:43:33;44161.27;;;-148.94;74.50
46682;BME280;34101;53.430;-2.224;2023-02-11T04:46:00;44224.15;;;-148.94;74.58
46682;BME280;34101;53.430;-2.224;2023-02-11T04:48:27;44174.56;;;-148.94;73.41
46682;BME280;34101;53.430;-2.224;2023-02-11T04:50:55;44337.89;;;-148.94;74.61
46682;BME280;34101;53.430;-2.224;2023-02-11T04:53:22;44176.48;;;-148.94;73.87
46682;BME280;34101;53.430;-2.224;2023-02-11T04:55:50;44081.91;;;-148.94;71.87
46682;BME280;34101;53.430;-2.224;2023-02-11T04:58:18;44117.44;;;-148.94;72.12
46682;BME280;34101;53.430;-2.224;2023-02-11T05:00:45;44475.80;;;-148.94;72.26
46682;BME280;34101;53.430;-2.224;2023-02-11T05:03:13;44455.35;;;-148.94;70.45
46682;BME280;34101;53.430;-2.224;2023-02-11T05:05:41;44281.92;;;-148.94;70.98
46682;BME280;34101;53.430;-2.224;2023-02-11T05:08:12;44108.88;;;-148.94;69.54
46682;BME280;34101;53.430;-2.224;2023-02-11T05:10:39;44086.00;;;-148.94;69.40
46682;BME280;34101;53.430;-2.224;2023-02-11T05:13:06;44208.43;;;-148.94;68.88
46682;BME280;34101;53.430;-2.224;2023-02-11T05:15:33;44036.80;;;-148.94;68.89
46682;BME280;34101;53.430;-2.224;2023-02-11T05:18:01;43994.37;;;-148.94;68.32
46682;BME280;34101;53.430;-2.224;2023-02-11T05:20:28;43707.49;;;-148.94;68.24
46682;BME280;34101;53.430;-2.224;2023-02-11T05:22:56;43917.82;;;-148.94;68.70
46682;BME280;34101;53.430;-2.224;2023-02-11T05:25:23;44344.16;;;-148.94;68.44
46682;BME280;34101;53.430;-2.224;2023-02-11T05:27:51;44401.16;;;-148.94;68.55
46682;BME280;34101;53.430;-2.224;2023-02-11T05:30:18;44616.13;;;-148.94;68.67
46682;BME280;34101;53.430;-2.224;2023-02-11T05:32:45;44946.16;;;-148.94;69.72
46682;BME280;34101;53.430;-2.224;2023-02-11T05:35:13;44818.85;;;-148.94;69.24
46682;BME280;34101;53.430;-2.224;2023-02-11T05:37:40;45056.86;;;-148.94;70.06
46682;BME280;34101;53.430;-2.224;2023-02-11T05:40:09;45475.26;;;-148.94;71.15
46682;BME280;34101;53.430;-2.224;2023-02-11T05:42:37;45819.55;;;-148.94;71.92
46682;BME280;34101;53.430;-2.224;2023-02-11T05:45:05;45625.60;;;-148.94;72.13
46682;BME280;34101;53.430;-2.224;2023-02-11T05:47:33;45179.32;;;-148.94;70.96
46682;BME280;34101;53.430;-2.224;2023-02-11T05:50:00;45171.65;;;-148.94;71.18
46682;BME280;34101;53.430;-2.224;2023-02-11T05:52:28;45277.50;;;-148.94;72.18
46682;BME280;34101;53.430;-2.224;2023-02-11T05:54:55;45210.38;;;-148.94;71.18
46682;BME280;34101;53.430;-2.224;2023-02-11T05:57:22;45188.01;;;-148.94;71.47
46682;BME280;34101;53.430;-2.224;2023-02-11T05:59:50;45323.64;;;-148.94;72.23
46682;BME280;34101;53.430;-2.224;2023-02-11T06:02:17;45221.76;;;-148.94;72.25
46682;BME280;34101;53.430;-2.224;2023-02-11T06:04:46;45590.45;;;-148.94;73.36
46682;BME280;34101;53.430;-2.224;2023-02-11T06:07:13;45215.11;;;-148.94;73.28
46682;BME280;34101;53.430;-2.224;2023-02-11T06:09:40;44790.60;;;-148.94;72.72
46682;BME280;34101;53.430;-2.224;2023-02-11T06:12:08;44735.26;;;-148.94;71.33
46682;BME280;34101;53.430;-2.224;2023-02-11T06:14:35;44700.24;;;-148.94;71.59
46682;BME280;34101;53.430;-2.224;2023-02-11T06:17:03;45343.59;;;-148.94;73.09
46682;BME280;34101;53.430;-2.224;2023-02-11T06:19:30;45473.34;;;-148.94;73.92
46682;BME280;34101;53.430;-2.224;2023-02-11T06:21:57;45325.18;;;-148.94;74.32
46682;BME280;34101;53.430;-2.224;2023-02-11T06:24:25;45718.17;;;-148.94;75.45
46682;BME280;34101;53.430;-2.224;2023-02-11T06:26:52;46578.81;;;-148.94;78.95
46682;BME280;34101;53.430;-2.224;2023-02-11T06:29:19;46812.83;;;-148.94;81.19
46682;BME280;34101;53.430;-2.224;2023-02-11T06:31:47;46981.64;;;-148.94;82.16
46682;BME280;34101;53.430;-2.224;2023-02-11T06:34:14;47191.52;;;-148.94;83.11
46682;BME280;34101;53.430;-2.224;2023-02-11T06:36:42;46928.70;;;-148.94;83.55
46682;BME280;34101;53.430;-2.224;2023-02-11T06:39:11;47121.69;;;-148.94;84.17
46682;BME280;34101;53.430;-2.224;2023-02-11T06:41:39;46857.08;;;-148.94;84.17
46682;BME280;34101;53.430;-2.224;2023-02-11T06:44:06;46638.91;;;-148.94;83.50
46682;BME280;34101;53.430;-2.224;2023-02-11T06:46:33;46173.59;;;-148.94;80.75
46682;BME280;34101;53.430;-2.224;2023-02-11T06:49:01;46114.39;;;-148.94;81.43
46682;BME280;34101;53.430;-2.224;2023-02-11T06:51:28;45926.82;;;-148.94;80.35
46682;BME280;34101;53.430;-2.224;2023-02-11T06:53:55;45604.89;;;-148.94;80.35
46682;BME280;34101;53.430;-2.224;2023-02-11T06:56:23;46141.50;;;-148.94;81.38
46682;BME280;34101;53.430;-2.224;2023-02-11T06:58:52;45816.23;;;-148.94;80.52
46682;BME280;34101;53.430;-2.224;2023-02-11T07:01:22;46007.50;;;-148.94;81.10
46682;BME280;34101;53.430;-2.224;2023-02-11T07:03:50;45971.95;;;-148.94;80.23
46682;BME280;34101;53.430;-2.224;2023-02-11T07:06:20;45898.44;;;-148.94;82.37
46682;BME280;34101;53.430;-2.224;2023-02-11T07:08:48;45998.42;;;-148.94;81.92
46682;BME280;34101;53.430;-2.224;2023-02-11T07:11:17;45972.98;;;-148.94;79.08
46682;BME280;34101;53.430;-2.224;2023-02-11T07:13:46;45753.32;;;-148.94;79.21
46682;BME280;34101;53.430;-2.224;2023-02-11T07:16:15;46580.73;;;-148.94;79.50
46682;BME280;34101;53.430;-2.224;2023-02-11T07:18:43;46265.01;;;-148.94;79.47
46682;BME280;34101;53.430;-2.224;2023-02-11T07:21:13;46648.89;;;-148.94;80.10
46682;BME280;34101;53.430;-2.224;2023-02-11T07:23:41;46699.27;;;-148.94;80.59
46682;BME280;34101;53.430;-2.224;2023-02-11T07:26:11;46676.38;;;-148.94;81.19
46682;BME280;34101;53.430;-2.224;2023-02-11T07:28:39;46835.60;;;-148.94;81.32
46682;BME280;34101;53.430;-2.224;2023-02-11T07:31:07;47076.16;;;-148.94;81.59
46682;BME280;34101;53.430;-2.224;2023-02-11T07:33:35;46807.08;;;-148.94;80.77
46682;BME280;34101;53.430;-2.224;2023-02-11T07:36:04;46956.58;;;-148.94;80.90
46682;BME280;34101;53.430;-2.224;2023-02-11T07:38:33;46727.66;;;-148.94;81.09
46682;BME280;34101;53.430;-2.224;2023-02-11T07:41:00;46470.50;;;-148.94;80.04
46682;BME280;34101;53.430;-2.224;2023-02-11T07:43:28;45969.65;;;-148.94;77.33
46682;BME280;34101;53.430;-2.224;2023-02-11T07:45:55;45887.31;;;-148.94;76.40
46682;BME280;34101;53.430;-2.224;2023-02-11T07:48:22;45503.64;;;-148.94;76.77
46682;BME280;34101;53.430;-2.224;2023-02-11T07:50:50;45579.20;;;-148.94;75.26
46682;BME280;34101;53.430;-2.224;2023-02-11T07:53:17;46451.70;;;-148.94;77.65
46682;BME280;34101;53.430;-2.224;2023-02-11T07:55:44;46551.57;;;-148.94;77.61
46682;BME280;34101;53.430;-2.224;2023-02-11T07:58:12;46636.10;;;-148.94;78.82
46682;BME280;34101;53.430;-2.224;2023-02-11T08:00:39;46482.27;;;-148.94;78.70
46682;BME280;34101;53.430;-2.224;2023-02-11T08:03:07;47236.54;;;-148.94;82.27
46682;BME280;34101;53.430;-2.224;2023-02-11T08:05:37;47076.80;;;-148.94;82.52
46682;BME280;34101;53.430;-2.224;2023-02-11T08:08:04;47448.73;;;-148.94;84.59
46682;BME280;34101;53.430;-2.224;2023-02-11T08:10:31;47694.82;;;-148.94;86.53
46682;BME280;34101;53.430;-2.224;2023-02-11T08:12:59;47746.24;;;-148.94;89.22
46682;BME280;34101;53.430;-2.224;2023-02-11T08:15:26;47646.22;;;-148.94;90.60
46682;BME280;34101;53.430;-2.224;2023-02-11T08:17:54;47390.79;;;-148.94;91.37
46682;BME280;34101;53.430;-2.224;2023-02-11T08:20:21;47726.67;;;-148.94;94.90
46682;BME280;34101;53.430;-2.224;2023-02-11T08:22:49;47718.87;;;-148.94;96.72
46682;BME280;34101;53.430;-2.224;2023-02-11T08:25:16;47591.98;;;-148.94;97.45
46682;BME280;34101;53.430;-2.224;2023-02-11T08:27:43;47147.26;;;-148.94;95.62
46682;BME280;34101;53.430;-2.224;2023-02-11T08:30:12;46760.27;;;-148.94;95.14
46682;BME280;34101;53.430;-2.224;2023-02-11T08:32:39;46402.86;;;-148.94;93.35
46682;BME280;34101;53.430;-2.224;2023-02-11T08:35:07;46119.76;;;-148.94;91.84
46682;BME280;34101;53.430;-2.224;2023-02-11T08:37:35;46039.21;;;-148.94;91.58
46682;BME280;34101;53.430;-2.224;2023-02-11T08:40:03;45760.74;;;-148.94;92.22
46682;BME280;34101;53.430;-2.224;2023-02-11T08:42:30;45592.62;;;-148.94;88.92
46682;BME280;34101;53.430;-2.224;2023-02-11T08:44:57;45323.52;;;-148.94;88.85
46682;BME280;34101;53.430;-2.224;2023-02-11T08:47:25;45523.07;;;-148.94;86.93
46682;BME280;34101;53.430;-2.224;2023-02-11T08:49:52;45895.62;;;-148.94;90.48
46682;BME280;34101;53.430;-2.224;2023-02-11T08:52:20;45416.58;;;-148.94;89.36
46682;BME280;34101;53.430;-2.224;2023-02-11T08:54:47;45402.26;;;-148.94;89.04
46682;BME280;34101;53.430;-2.224;2023-02-11T08:57:14;45031.29;;;-148.94;88.85
46682;BME280;34101;53.430;-2.224;2023-02-11T08:59:42;44738.84;;;-148.94;87.37
46682;BME280;34101;53.430;-2.224;2023-02-11T09:02:10;44305.56;;;-148.94;86.17
46682;BME280;34101;53.430;-2.224;2023-02-11T09:04:38;44660.74;;;-148.94;85.95
46682;BME280;34101;53.430;-2.224;2023-02-11T09:07:05;44593.64;;;-148.94;85.39
46682;BME280;34101;53.430;-2.224;2023-02-11T09:09:33;44633.39;;;-148.94;84.75
46682;BME280;34101;53.430;-2.224;2023-02-11T09:12:00;44583.16;;;-148.94;85.43
46682;BME280;34101;53.430;-2.224;2023-02-11T09:14:27;44435.41;;;-148.94;86.16
46682;BME280;34101;53.430;-2.224;2023-02-11T09:16:55;45260.24;;;-148.94;88.02
46682;BME280;34101;53.430;-2.224;2023-02-11T09:19:22;44385.57;;;-148.94;88.02
46682;BME280;34101;53.430;-2.224;2023-02-11T09:21:50;44360.39;;;-148.94;88.38
46682;BME280;34101;53.430;-2.224;2023-02-11T09:24:17;43907.73;;;-148.94;86.26
46682;BME280;34101;53.430;-2.224;2023-02-11T09:26:44;44037.69;;;-148.94;86.44
46682;BME280;34101;53.430;-2.224;2023-02-11T09:29:12;44235.27;;;-148.94;87.14
46682;BME280;34101;53.430;-2.224;2023-02-11T09:31:39;44127.02;;;-148.94;86.93
46682;BME280;34101;53.430;-2.224;2023-02-11T09:34:07;44015.71;;;-148.94;87.36
46682;BME280;34101;53.430;-2.224;2023-02-11T09:36:37;43554.53;;;-148.94;87.18
46682;BME280;34101;53.430;-2.224;2023-02-11T09:39:06;42944.69;;;-148.94;85.10
46682;BME280;34101;53.430;-2.224;2023-02-11T09:42:03;43001.42;;;-148.94;85.39
46682;BME280;34101;53.430;-2.224;2023-02-11T09:44:35;42288.70;;;-148.94;81.34
46682;BME280;34101;53.430;-2.224;2023-02-11T09:47:06;42451.06;;;-148.94;81.08
46682;BME280;34101;53.430;-2.224;2023-02-11T09:49:43;43243.28;;;-148.94;83.51
46682;BME280;34101;53.430;-2.224;2023-02-11T09:52:24;43335.40;;;-148.94;85.05
46682;BME280;34101;53.430;-2.224;2023-02-11T09:54:58;42824.60;;;-148.94;83.81
46682;BME280;34101;53.430;-2.224;2023-02-11T09:57:31;42428.96;;;-148.94;81.57
46682;BME280;34101;53.430;-2.224;2023-02-11T10:00:00;43192.68;;;-148.94;83.64
46682;BME280;34101;53.430;-2.224;2023-02-11T10:02:35;42507.91;;;-148.94;83.18
46682;BME280;34101;53.430;-2.224;2023-02-11T10:06:14;42395.24;;;-148.94;83.20
46682;BME280;34101;53.430;-2.224;2023-02-11T10:08:52;42854.49;;;-148.94;83.80
46682;BME280;34101;53.430;-2.224;2023-02-11T10:11:30;42697.10;;;-148.94;83.50
46682;BME280;34101;53.430;-2.224;2023-02-11T10:14:14;42242.21;;;-148.94;82.86
46682;BME280;34101;53.430;-2.224;2023-02-11T10:16:57;41841.65;;;-148.94;82.15
46682;BME280;34101;53.430;-2.224;2023-02-11T10:19:39;41395.28;;;-148.94;80.63
46682;BME280;34101;53.430;-2.224;2023-02-11T10:22:16;41313.42;;;-148.94;80.91
46682;BME280;34101;53.430;-2.224;2023-02-11T10:24:51;41268.59;;;-148.94;79.91
46682;BME280;34101;53.430;-2.224;2023-02-11T10:27:23;41100.03;;;-148.94;80.16
46682;BME280;34101;53.430;-2.224;2023-02-11T10:29:55;41265.40;;;-148.94;80.44
46682;BME280;34101;53.430;-2.224;2023-02-11T10:32:30;41374.33;;;-148.94;80.27
46682;BME280;34101;53.430;-2.224;2023-02-11T10:35:08;42155.60;;;-148.94;81.66
46682;BME280;34101;53.430;-2.224;2023-02-11T10:37:38;41843.82;;;-148.94;82.08
46682;BME280;34101;53.430;-2.224;2023-02-11T10:40:10;42140.27;;;-148.94;81.09
46682;BME280;34101;53.430;-2.224;2023-02-11T10:42:39;42262.39;;;-148.94;82.17
46682;BME280;34101;53.430;-2.224;2023-02-11T10:45:16;42243.87;;;-148.94;81.81
46682;BME280;34101;53.430;-2.224;2023-02-11T10:47:45;42637.70;;;-148.94;85.05
46682;BME280;34101;53.430;-2.224;2023-02-11T10:50:23;42518.89;;;-148.94;83.59
46682;BME280;34101;53.430;-2.224;2023-02-11T10:52:50;42344.40;;;-148.94;84.11
46682;BME280;34101;53.430;-2.224;2023-02-11T10:55:19;42164.42;;;-148.94;83.02
46682;BME280;34101;53.430;-2.224;2023-02-11T10:57:55;42216.79;;;-148.94;82.85
46682;BME280;34101;53.430;-2.224;2023-02-11T11:00:33;41895.80;;;-148.94;84.01
46682;BME280;34101;53.430;-2.224;2023-02-11T11:03:02;41519.03;;;-148.94;81.89
46682;BME280;34101;53.430;-2.224;2023-02-11T11:05:31;40638.29;;;-148.94;79.65
46682;BME280;34101;53.430;-2.224;2023-02-11T11:08:02;38892.98;;;-148.94;75.34
46682;BME280;34101;53.430;-2.224;2023-02-11T11:10:36;38733.71;;;-148.94;72.86
46682;BME280;34101;53.430;-2.224;2023-02-11T11:13:03;39098.85;;;-148.94;72.06
46682;BME280;34101;53.430;-2.224;2023-02-11T11:15:31;39222.40;;;-148.94;73.03
46682;BME280;34101;53.430;-2.224;2023-02-11T11:18:16;39557.08;;;-148.94;73.61
46682;BME280;34101;53.430;-2.224;2023-02-11T11:20:54;39641.97;;;-148.94;73.98
46682;BME280;34101;53.430;-2.224;2023-02-11T11:23:23;39501.05;;;-148.94;73.70
46682;BME280;34101;53.430;-2.224;2023-02-11T11:26:01;39466.84;;;-148.94;73.62
46682;BME280;34101;53.430;-2.224;2023-02-11T11:28:31;39720.22;;;-148.94;73.80
46682;BME280;34101;53.430;-2.224;2023-02-11T11:31:01;40095.67;;;-148.94;74.18
46682;BME280;34101;53.430;-2.224;2023-02-11T11:33:32;40470.14;;;-148.94;75.01
46682;BME280;34101;53.430;-2.224;2023-02-11T11:36:03;39863.97;;;-148.94;74.15
46682;BME280;34101;53.430;-2.224;2023-02-11T11:38:35;38656.11;;;-148.94;73.19
46682;BME280;34101;53.430;-2.224;2023-02-11T11:41:23;37759.69;;;-148.94;71.04
46682;BME280;34101;53.430;-2.224;2023-02-11T11:43:56;37562.82;;;-148.94;68.53
46682;BME280;34101;53.430;-2.224;2023-02-11T11:46:27;37198.33;;;-148.94;69.56
46682;BME280;34101;53.430;-2.224;2023-02-11T11:49:00;36988.09;;;-148.94;66.70
46682;BME280;34101;53.430;-2.224;2023-02-11T11:51:29;37087.47;;;-148.94;66.60
46682;BME280;34101;53.430;-2.224;2023-02-11T11:54:02;36660.64;;;-148.94;67.73
46682;BME280;34101;53.430;-2.224;2023-02-11T11:56:33;34370.04;;;-148.94;63.91
46682;BME280;34101;53.430;-2.224;2023-02-11T11:59:10;33523.28;;;-148.94;60.67
46682;BME280;34101;53.430;-2.224;2023-02-11T12:01:48;33591.72;;;-148.94;60.98
46682;BME280;34101;53.430;-2.224;2023-02-11T12:04:28;34416.95;;;-148.94;61.09
46682;BME280;34101;53.430;-2.224;2023-02-11T12:07:15;36535.39;;;-148.94;61.30
46682;BME280;34101;53.430;-2.224;2023-02-11T12:09:55;36709.50;;;-148.94;62.68
46682;BME280;34101;53.430;-2.224;2023-02-11T12:12:34;36670.98;;;-148.94;62.72
46682;BME280;34101;53.430;-2.224;2023-02-11T12:15:17;38022.02;;;-148.94;67.39
46682;BME280;34101;53.430;-2.224;2023-02-11T12:18:01;38120.02;;;-148.94;66.17
46682;BME280;34101;53.430;-2.224;2023-02-11T12:20:41;39636.23;;;-148.94;68.04
46682;BME280;34101;53.430;-2.224;2023-02-11T12:23:28;39965.71;;;-148.94;69.06
46682;BME280;34101;53.430;-2.224;2023-02-11T12:26:08;40247.98;;;-148.94;69.10
46682;BME280;34101;53.430;-2.224;2023-02-11T12:28:47;40185.42;;;-148.94;68.89
46682;BME280;34101;53.430;-2.224;2023-02-11T12:31:26;40185.42;;;-148.94;69.15
46682;BME280;34101;53.430;-2.224;2023-02-11T12:34:17;40448.30;;;-148.94;69.90
46682;BME280;34101;53.430;-2.224;2023-02-11T12:36:56;40432.98;;;-148.94;70.90
46682;BME280;34101;53.430;-2.224;2023-02-11T12:39:35;41098.24;;;-148.94;71.73
46682;BME280;34101;53.430;-2.224;2023-02-11T12:42:26;39953.07;;;-148.94;70.42
46682;BME280;34101;53.430;-2.224;2023-02-11T12:45:08;39748.69;;;-148.94;69.28
46682;BME280;34101;53.430;-2.224;2023-02-11T12:47:46;40473.58;;;-148.94;69.99
46682;BME280;34101;53.430;-2.224;2023-02-11T12:50:23;39636.87;;;-148.94;69.04
46682;BME280;34101;53.430;-2.224;2023-02-11T12:53:04;39327.71;;;-148.94;68.54